createdAt,value
2022-10-11T00:02:37.824Z,10.30
2022-10-11T00:05:16.127Z,8.75
2022-10-11T00:07:54.231Z,7.63
2022-10-11T00:10:33.233Z,8.65
2022-10-11T00:13:12.670Z,10.10
2022-10-11T00:15:50.577Z,9.85
2022-10-11T00:18:29.675Z,9.27
2022-10-11T00:21:10.302Z,7.35
2022-10-11T00:23:49.083Z,9.90
2022-10-11T00:26:28.256Z,8.07
2022-10-11T00:29:06.433Z,11.07
2022-10-11T00:31:44.608Z,9.88
2022-10-11T00:34:22.839Z,10.65
2022-10-11T00:37:01.039Z,6.88
2022-10-11T00:39:39.374Z,9.93
2022-10-11T00:42:19.319Z,11.32
2022-10-11T00:45:17.270Z,8.15
2022-10-11T00:47:57.692Z,13.75
2022-10-11T00:50:39.259Z,20.42
2022-10-11T00:53:17.479Z,20.80
2022-10-11T00:56:04.938Z,19.42
2022-10-11T00:58:44.262Z,21.70
2022-10-11T01:01:23.464Z,22.85
2022-10-11T01:04:02.336Z,20.38
2022-10-11T01:06:42.052Z,19.75
2022-10-11T01:09:21.900Z,18.95
2022-10-11T01:12:02.929Z,20.63
2022-10-11T01:14:53.892Z,19.45
2022-10-11T01:17:42.038Z,21.55
2022-10-11T01:20:27.819Z,23.20
2022-10-11T01:23:24.276Z,30.92
2022-10-11T01:26:22.789Z,25.48
2022-10-11T01:29:03.911Z,37.65
2022-10-11T01:31:52.514Z,42.13
2022-10-11T01:34:50.429Z,39.90
2022-10-11T01:37:37.957Z,33.90
2022-10-11T01:40:23.744Z,30.67
2022-10-11T01:43:03.804Z,27.02
2022-10-11T01:45:43.555Z,27.00
2022-10-11T01:48:22.732Z,28.27
2022-10-11T01:51:02.744Z,32.83
2022-10-11T01:53:47.171Z,27.63
2022-10-11T01:56:28.403Z,30.45
2022-10-11T01:59:22.111Z,31.73
2022-10-11T02:02:24.716Z,28.25
2022-10-11T02:05:21.944Z,28.02
2022-10-11T02:08:16.700Z,17.17
2022-10-11T02:10:53.568Z,18.27
2022-10-11T02:13:37.106Z,18.15
2022-10-11T02:16:19.500Z,20.33
2022-10-11T02:18:57.941Z,13.52
2022-10-11T02:21:37.440Z,18.30
2022-10-11T02:24:18.173Z,12.95
2022-10-11T02:26:57.643Z,17.15
2022-10-11T02:29:38.518Z,13.05
2022-10-11T02:32:18.119Z,14.50
2022-10-11T02:34:58.677Z,15.68
2022-10-11T02:37:42.363Z,11.80
2022-10-11T02:40:23.642Z,14.25
2022-10-11T02:43:06.963Z,12.80
2022-10-11T02:45:51.025Z,18.27
2022-10-11T02:48:30.431Z,12.73
2022-10-11T02:51:13.009Z,13.82
2022-10-11T02:53:50.998Z,13.48
2022-10-11T02:56:29.327Z,10.45
2022-10-11T02:59:07.438Z,13.18
2022-10-11T03:01:45.779Z,12.95
2022-10-11T03:04:23.871Z,9.88
2022-10-11T03:07:02.176Z,11.85
2022-10-11T03:09:40.336Z,10.05
2022-10-11T03:12:18.554Z,9.93
2022-10-11T03:14:56.783Z,12.23
2022-10-11T03:17:36.954Z,11.27
2022-10-11T03:20:16.419Z,14.25
2022-10-11T03:22:54.555Z,11.90
2022-10-11T03:25:32.880Z,9.60
2022-10-11T03:28:11.052Z,10.32
2022-10-11T03:30:49.871Z,11.82
2022-10-11T03:33:29.025Z,10.65
2022-10-11T03:36:08.015Z,15.23
2022-10-11T03:38:47.107Z,11.65
2022-10-11T03:41:25.376Z,12.05
2022-10-11T03:44:03.649Z,9.10
2022-10-11T03:46:41.745Z,10.57
2022-10-11T03:49:19.979Z,11.60
2022-10-11T03:51:58.146Z,9.50
2022-10-11T03:54:36.342Z,11.60
2022-10-11T03:57:14.945Z,11.18
2022-10-11T03:59:52.803Z,11.60
2022-10-11T04:02:33.724Z,21.85
2022-10-11T04:05:15.653Z,111.57
2022-10-11T04:07:53.816Z,20.10
2022-10-11T04:10:32.148Z,12.50
2022-10-11T04:13:11.272Z,58.28
2022-10-11T04:15:50.199Z,30.55
2022-10-11T04:18:28.294Z,18.85
2022-10-11T04:21:06.909Z,20.70
2022-10-11T04:23:44.730Z,12.55
2022-10-11T04:26:23.050Z,13.13
2022-10-11T04:29:01.176Z,84.35
2022-10-11T04:31:39.542Z,14.48
2022-10-11T04:34:18.134Z,9.55
2022-10-11T04:36:55.972Z,13.77
2022-10-11T04:39:34.184Z,11.73
2022-10-11T04:42:12.321Z,12.35
2022-10-11T04:44:50.439Z,12.80
2022-10-11T04:47:28.774Z,16.63
2022-10-11T04:50:07.191Z,14.15
2022-10-11T04:52:46.771Z,15.45
2022-10-11T04:55:24.991Z,14.32
2022-10-11T04:58:03.176Z,14.55
2022-10-11T05:00:42.584Z,13.05
2022-10-11T05:03:21.224Z,15.75
2022-10-11T05:06:05.188Z,18.95
2022-10-11T05:08:43.998Z,13.20
2022-10-11T05:11:23.332Z,14.27
2022-10-11T05:14:02.171Z,15.48
2022-10-11T05:16:40.382Z,12.25
2022-10-11T05:19:18.484Z,13.05
2022-10-11T05:21:57.509Z,16.02
2022-10-11T05:24:36.493Z,12.43
2022-10-11T05:27:14.764Z,13.48
2022-10-11T05:29:52.972Z,13.57
2022-10-11T05:32:31.316Z,13.70
2022-10-11T05:35:09.568Z,14.27
2022-10-11T05:37:49.190Z,14.13
2022-10-11T05:40:27.819Z,14.85
2022-10-11T05:43:05.877Z,15.88
2022-10-11T05:45:44.322Z,16.05
2022-10-11T05:48:22.092Z,15.95
2022-10-11T05:51:05.153Z,13.60
2022-10-11T05:53:43.251Z,14.05
2022-10-11T05:56:25.791Z,16.55
2022-10-11T05:59:04.972Z,20.92
2022-10-11T06:01:42.837Z,16.00
2022-10-11T06:04:20.909Z,15.60
2022-10-11T06:06:58.341Z,15.43
2022-10-11T06:09:37.364Z,17.48
2022-10-11T06:12:15.761Z,18.45
2022-10-11T06:15:19.806Z,18.23
2022-10-11T06:18:15.197Z,18.20
2022-10-11T06:21:16.869Z,15.15
2022-10-11T06:24:24.602Z,19.50
2022-10-11T06:27:25.765Z,13.35
2022-10-11T06:30:30.924Z,12.63
2022-10-11T06:33:28.359Z,17.27
2022-10-11T06:36:20.062Z,11.98
2022-10-11T06:39:12.595Z,12.88
2022-10-11T07:02:51.170Z,17.45
2022-10-11T07:05:46.842Z,19.67
2022-10-11T07:08:50.637Z,22.55
2022-10-11T07:11:42.096Z,19.67
2022-10-11T07:14:19.657Z,22.73
2022-10-11T07:17:11.327Z,21.17
2022-10-11T07:20:13.054Z,18.52
2022-10-11T07:23:15.307Z,19.80
2022-10-11T07:26:12.900Z,19.67
2022-10-11T07:29:17.631Z,20.38
2022-10-11T07:32:09.599Z,19.00
2022-10-11T07:35:02.232Z,15.70
2022-10-11T07:37:58.653Z,17.80
2022-10-11T07:40:50.651Z,17.95
2022-10-11T07:43:43.669Z,13.93
2022-10-11T07:46:39.428Z,14.38
2022-10-11T07:49:49.819Z,13.18
2022-10-11T07:52:45.688Z,15.02
2022-10-11T07:55:42.043Z,11.40
2022-10-11T07:58:33.705Z,12.65
2022-10-11T08:01:32.741Z,10.98
2022-10-11T08:04:25.187Z,14.35
2022-10-11T08:07:20.615Z,13.38
2022-10-11T08:10:13.718Z,15.07
2022-10-11T08:13:09.971Z,11.00
2022-10-11T08:16:02.484Z,12.32
2022-10-11T08:19:13.514Z,14.07
2022-10-11T08:22:10.077Z,11.77
2022-10-11T08:25:03.329Z,11.25
2022-10-11T08:27:58.506Z,16.95
2022-10-11T08:30:57.019Z,15.27
2022-10-11T08:33:52.612Z,17.38
2022-10-11T08:36:51.508Z,17.58
2022-10-11T08:39:43.182Z,17.10
2022-10-11T08:42:43.740Z,16.65
2022-10-11T08:45:44.521Z,17.77
2022-10-11T08:48:47.466Z,18.25
2022-10-11T08:51:25.563Z,19.90
2022-10-11T08:54:22.691Z,19.17
2022-10-11T08:56:50.773Z,19.60
2022-10-11T08:59:27.311Z,16.15
2022-10-11T09:01:59.579Z,17.48
2022-10-11T09:04:27.535Z,24.15
2022-10-11T09:07:13.957Z,25.17
2022-10-11T09:10:07.770Z,16.27
2022-10-11T09:12:50.093Z,16.98
2022-10-11T09:15:17.618Z,18.73
2022-10-11T09:18:03.091Z,17.80
2022-10-11T09:20:33.663Z,17.60
2022-10-11T09:23:16.559Z,20.57
2022-10-11T09:25:49.174Z,26.17
2022-10-11T09:28:24.073Z,19.90
2022-10-11T09:31:09.998Z,18.35
2022-10-11T09:33:42.015Z,18.27
2022-10-11T09:36:28.588Z,21.63
2022-10-11T09:39:06.528Z,19.30
2022-10-11T09:41:43.544Z,19.23
2022-10-11T09:44:19.455Z,20.25
2022-10-11T09:46:48.038Z,20.23
2022-10-11T09:49:19.135Z,17.08
2022-10-11T09:51:57.950Z,18.05
2022-10-11T09:54:39.135Z,20.38
2022-10-11T09:57:08.272Z,21.10
2022-10-11T09:59:38.436Z,21.38
2022-10-11T10:02:15.521Z,20.67
2022-10-11T10:05:00.780Z,17.63
2022-10-11T10:07:29.453Z,23.33
2022-10-11T10:09:57.721Z,22.38
2022-10-11T10:12:29.806Z,22.92
2022-10-11T10:15:19.452Z,27.48
2022-10-11T10:17:50.878Z,23.17
2022-10-11T10:22:47.746Z,20.80
2022-10-11T10:25:43.695Z,21.00
2022-10-11T10:28:25.721Z,18.15
2022-10-11T10:30:58.062Z,21.35
2022-10-11T10:33:30.718Z,18.75
2022-10-11T10:36:08.106Z,23.75
2022-10-11T10:38:40.995Z,27.30
2022-10-11T10:41:13.563Z,23.63
2022-10-11T10:43:42.591Z,20.08
2022-10-11T10:46:17.110Z,23.58
2022-10-11T10:52:11.726Z,21.00
2022-10-11T10:55:00.194Z,23.83
2022-10-11T10:57:42.998Z,22.08
2022-10-11T11:00:15.501Z,24.40
2022-10-11T11:03:09.768Z,19.95
2022-10-11T11:05:37.735Z,25.63
2022-10-11T11:08:13.542Z,31.95
2022-10-11T11:10:54.302Z,25.02
2022-10-11T11:13:25.078Z,27.52
2022-10-11T11:15:58.789Z,30.13
2022-10-11T11:18:35.198Z,26.15
2022-10-11T11:21:29.128Z,40.10
2022-10-11T11:24:03.897Z,36.83
2022-10-11T11:26:46.644Z,27.75
2022-10-11T11:29:26.426Z,32.13
2022-10-11T11:32:14.228Z,44.25
2022-10-11T11:34:44.861Z,35.63
2022-10-11T11:37:20.636Z,34.63
2022-10-11T11:39:52.929Z,47.22
2022-10-11T11:42:23.779Z,36.55
2022-10-11T11:44:52.244Z,41.78
2022-10-11T11:47:22.668Z,39.13
2022-10-11T11:49:55.622Z,28.73
2022-10-11T11:52:33.147Z,44.30
2022-10-11T11:55:07.156Z,41.53
2022-10-11T11:57:42.527Z,37.30
2022-10-11T12:00:28.195Z,35.88
2022-10-11T12:02:56.223Z,28.90
2022-10-11T12:05:27.416Z,32.05
2022-10-11T12:07:55.284Z,33.22
2022-10-11T12:10:41.684Z,29.48
2022-10-11T12:13:16.888Z,31.05
2022-10-11T12:16:00.102Z,36.97
2022-10-11T12:18:29.074Z,34.15
2022-10-11T12:21:05.594Z,28.25
2022-10-11T12:23:40.129Z,33.20
2022-10-11T12:26:19.907Z,28.60
2022-10-11T12:29:00.947Z,35.55
2022-10-11T12:31:31.004Z,35.22
2022-10-11T12:34:01.669Z,30.77
2022-10-11T12:36:30.262Z,31.58
2022-10-11T12:39:16.461Z,39.00
2022-10-11T12:41:50.389Z,30.08
2022-10-11T12:44:26.461Z,36.70
2022-10-11T12:46:54.449Z,30.73
2022-10-11T12:49:25.161Z,24.80
2022-10-11T12:52:11.433Z,29.73
2022-10-11T12:54:45.145Z,30.02
2022-10-11T12:57:33.011Z,29.67
2022-10-11T13:00:20.644Z,24.13
2022-10-11T13:02:49.187Z,22.65
2022-10-11T13:05:27.861Z,22.90
2022-10-11T13:07:56.786Z,20.83
2022-10-11T13:10:29.750Z,19.85
2022-10-11T13:12:59.676Z,18.70
2022-10-11T13:15:27.752Z,20.15
2022-10-11T13:17:59.402Z,21.67
2022-10-11T13:20:29.297Z,20.80
2022-10-11T13:22:57.569Z,19.25
2022-10-11T13:25:30.485Z,21.17
2022-10-11T13:28:01.923Z,26.50
2022-10-11T13:30:34.386Z,31.00
2022-10-11T13:33:06.563Z,22.35
2022-10-11T13:35:36.288Z,23.00
2022-10-11T13:38:08.953Z,27.67
2022-10-11T13:40:38.295Z,24.17
2022-10-11T13:43:06.570Z,24.05
2022-10-11T13:45:36.955Z,24.58
2022-10-11T13:48:05.649Z,21.30
2022-10-11T13:50:34.542Z,24.17
2022-10-11T13:53:03.564Z,22.58
2022-10-11T13:55:51.958Z,17.05
2022-10-11T13:58:20.129Z,17.08
2022-10-11T14:01:07.427Z,19.85
2022-10-11T14:03:45.319Z,22.95
2022-10-11T14:06:13.138Z,20.85
2022-10-11T14:09:07.430Z,17.10
2022-10-11T14:11:36.530Z,18.27
2022-10-11T14:14:23.054Z,18.40
2022-10-11T14:16:57.995Z,20.58
2022-10-11T14:19:25.879Z,19.15
2022-10-11T14:21:53.916Z,17.50
2022-10-11T14:24:22.357Z,21.40
2022-10-11T14:26:54.660Z,23.10
2022-10-11T14:29:30.058Z,23.80
2022-10-11T14:32:05.009Z,22.15
2022-10-11T14:34:33.419Z,23.02
2022-10-11T14:37:01.107Z,25.38
2022-10-11T14:39:30.621Z,18.88
2022-10-11T14:41:58.283Z,20.95
2022-10-11T14:44:26.211Z,29.63
2022-10-11T14:46:55.177Z,27.50
2022-10-11T14:49:25.145Z,36.92
2022-10-11T14:51:53.476Z,22.65
2022-10-11T14:54:23.562Z,17.75
2022-10-11T14:56:52.541Z,20.55
2022-10-11T14:59:21.522Z,24.58
2022-10-11T15:01:53.893Z,27.75
2022-10-11T15:04:22.660Z,15.40
2022-10-11T15:06:50.432Z,16.67
2022-10-11T15:09:20.808Z,20.38
2022-10-11T15:11:49.575Z,22.13
2022-10-11T15:14:17.260Z,18.63
2022-10-11T15:16:45.189Z,21.48
2022-10-11T15:19:20.740Z,24.48
2022-10-11T15:21:48.961Z,26.33
2022-10-11T15:24:19.870Z,27.50
2022-10-11T15:26:48.107Z,23.60
2022-10-11T15:29:21.837Z,22.92
2022-10-11T15:31:49.522Z,24.52
2022-10-11T15:34:17.652Z,30.80
2022-10-11T15:36:45.879Z,36.67
2022-10-11T15:39:24.430Z,24.33
2022-10-11T15:41:52.333Z,22.15
2022-10-11T15:44:19.979Z,24.70
2022-10-11T15:46:47.771Z,27.02
2022-10-11T15:49:15.521Z,27.63
2022-10-11T15:51:43.558Z,25.70
2022-10-11T15:54:11.259Z,31.83
2022-10-11T15:56:38.901Z,142.63
2022-10-11T15:59:07.083Z,83.30
2022-10-11T16:01:34.738Z,60.08
2022-10-11T16:04:02.603Z,44.17
2022-10-11T16:06:30.430Z,43.42
2022-10-11T16:08:58.975Z,42.90
2022-10-11T16:11:26.841Z,43.70
2022-10-11T16:13:54.487Z,37.65
2022-10-11T16:16:22.362Z,45.17
2022-10-11T16:18:53.183Z,62.55
2022-10-11T16:21:23.551Z,92.70
2022-10-11T16:23:51.283Z,75.68
2022-10-11T16:26:19.132Z,72.25
2022-10-11T16:28:48.018Z,130.55
2022-10-11T16:31:18.267Z,125.60
2022-10-11T16:33:46.551Z,100.60
2022-10-11T16:36:32.475Z,81.57
2022-10-11T16:39:01.337Z,73.20
2022-10-11T16:41:29.175Z,75.55
2022-10-11T16:43:57.020Z,75.65
2022-10-11T16:46:25.209Z,71.57
2022-10-11T16:48:55.156Z,73.63
2022-10-11T16:51:24.253Z,97.68
2022-10-11T16:53:53.261Z,75.22
2022-10-11T16:56:22.662Z,79.32
2022-10-11T16:58:51.187Z,58.70
2022-10-11T17:01:18.921Z,60.75
2022-10-11T17:03:46.839Z,60.03
2022-10-11T17:06:14.477Z,63.17
2022-10-11T17:08:42.429Z,73.53
2022-10-11T17:11:09.940Z,72.38
2022-10-11T17:13:37.760Z,75.93
2022-10-11T17:16:05.736Z,61.60
2022-10-11T17:18:33.703Z,79.40
2022-10-11T17:21:02.305Z,72.88
2022-10-11T17:23:30.256Z,90.57
2022-10-11T17:25:57.863Z,91.47
2022-10-11T17:28:26.520Z,76.90
2022-10-11T17:30:58.936Z,97.18
2022-10-11T17:33:27.170Z,101.72
2022-10-11T17:35:55.598Z,79.97
2022-10-11T17:38:27.328Z,84.00
2022-10-11T17:41:01.975Z,101.10
2022-10-11T17:43:30.096Z,119.25
2022-10-11T17:45:58.932Z,113.65
2022-10-11T17:48:27.902Z,97.95
2022-10-11T17:50:56.000Z,103.88
2022-10-11T17:53:23.845Z,92.30
2022-10-11T17:55:53.357Z,86.07
2022-10-11T17:58:21.132Z,91.18
2022-10-11T18:00:49.008Z,94.40
2022-10-11T18:07:54.790Z,83.70
2022-10-11T18:10:23.061Z,83.75
2022-10-11T18:12:55.229Z,81.57
2022-10-11T18:15:23.086Z,85.93
2022-10-11T18:17:50.711Z,91.95
2022-10-11T18:20:18.390Z,79.30
2022-10-11T18:22:46.148Z,70.03
2022-10-11T18:25:13.706Z,68.28
2022-10-11T18:27:41.901Z,108.88
2022-10-11T18:30:10.000Z,60.58
2022-10-11T18:32:39.053Z,69.00
2022-10-11T18:35:08.928Z,147.90
2022-10-11T18:37:37.084Z,85.78
2022-10-11T18:40:05.951Z,79.85
2022-10-11T18:42:33.590Z,79.50
2022-10-11T18:45:01.422Z,85.15
2022-10-11T18:47:29.050Z,86.03
2022-10-11T18:49:57.034Z,69.07
2022-10-11T18:52:24.809Z,101.55
2022-10-11T18:54:52.729Z,133.55
2022-10-11T18:57:20.350Z,63.70
2022-10-11T18:59:48.095Z,234.38
2022-10-11T19:02:15.721Z,149.80
2022-10-11T19:04:43.550Z,102.25
2022-10-11T19:07:11.419Z,65.13
2022-10-11T19:09:39.118Z,352.77
2022-10-11T19:12:07.161Z,68.28
2022-10-11T19:14:34.867Z,158.10
2022-10-11T19:17:02.523Z,107.47
2022-10-11T19:19:31.007Z,86.53
2022-10-11T19:21:59.409Z,73.55
2022-10-11T19:24:29.883Z,75.22
2022-10-11T19:27:02.509Z,63.08
2022-10-11T19:29:30.589Z,56.08
2022-10-11T19:31:59.603Z,56.40
2022-10-11T19:34:28.405Z,58.42
2022-10-11T19:36:56.844Z,67.88
2022-10-11T19:39:25.489Z,60.67
2022-10-11T19:41:53.178Z,66.63
2022-10-11T19:44:24.178Z,73.60
2022-10-11T19:46:52.991Z,65.20
2022-10-11T19:49:24.021Z,63.13
2022-10-11T19:51:52.245Z,85.47
2022-10-11T19:54:19.977Z,116.68
2022-10-11T19:56:48.133Z,127.05
2022-10-11T19:59:15.941Z,91.72
2022-10-11T20:01:47.928Z,84.30
2022-10-11T20:04:40.008Z,81.90
2022-10-11T20:07:06.778Z,81.13
2022-10-11T20:09:34.493Z,93.35
2022-10-11T20:12:02.306Z,63.28
2022-10-11T20:14:30.040Z,63.80
2022-10-11T20:16:57.790Z,61.80
2022-10-11T20:19:30.550Z,64.00
2022-10-11T20:21:59.713Z,76.95
2022-10-11T20:24:29.421Z,66.78
2022-10-11T20:26:57.227Z,95.65
2022-10-11T20:29:25.638Z,88.57
2022-10-11T20:31:53.445Z,90.80
2022-10-11T20:34:21.264Z,62.47
2022-10-11T20:36:49.488Z,67.45
2022-10-11T20:39:17.916Z,90.25
2022-10-11T20:41:46.204Z,71.68
2022-10-11T20:44:16.088Z,79.63
2022-10-11T20:46:44.200Z,77.47
2022-10-11T20:49:12.451Z,60.15
2022-10-11T20:51:41.696Z,60.88
2022-10-11T20:54:10.390Z,64.45
2022-10-11T20:56:38.262Z,71.43
2022-10-11T20:59:06.664Z,63.63
2022-10-11T21:01:37.072Z,56.35
2022-10-11T21:04:06.254Z,59.80
2022-10-11T21:06:34.450Z,60.15
2022-10-11T21:09:02.392Z,60.55
2022-10-11T21:11:32.343Z,57.58
2022-10-11T21:14:01.333Z,64.03
2022-10-11T21:16:29.432Z,52.45
2022-10-11T21:18:58.324Z,53.67
2022-10-11T21:21:26.581Z,52.63
2022-10-11T21:23:54.817Z,45.78
2022-10-11T21:26:22.934Z,44.83
2022-10-11T21:28:50.628Z,41.33
2022-10-11T21:31:19.748Z,51.88
2022-10-11T21:33:47.718Z,44.22
2022-10-11T21:36:17.638Z,43.10
2022-10-11T21:38:45.381Z,64.07
2022-10-11T21:41:20.385Z,60.78
2022-10-11T21:43:48.385Z,41.65
2022-10-11T21:46:20.478Z,37.72
2022-10-11T21:51:22.826Z,39.67
2022-10-11T21:53:51.110Z,38.38
2022-10-11T21:56:19.174Z,38.13
2022-10-11T21:58:48.106Z,40.22
2022-10-11T22:01:16.673Z,46.42
2022-10-11T22:03:44.548Z,44.95
2022-10-11T22:06:12.321Z,35.13
2022-10-11T22:08:40.329Z,34.08
2022-10-11T22:11:08.567Z,40.22
2022-10-11T22:13:36.256Z,33.05
2022-10-11T22:16:04.568Z,29.83
2022-10-11T22:18:33.852Z,36.28
2022-10-11T22:21:05.079Z,32.33
2022-10-11T22:23:33.192Z,36.78
2022-10-11T22:26:08.254Z,40.63
2022-10-11T22:28:37.117Z,24.13
2022-10-11T22:31:08.169Z,29.17
2022-10-11T22:33:35.952Z,30.47
2022-10-11T22:36:06.315Z,26.23
2022-10-11T22:38:36.163Z,29.48
2022-10-11T22:41:04.102Z,26.60
2022-10-11T22:43:32.199Z,30.05
2022-10-11T22:46:00.129Z,23.75
2022-10-11T22:48:28.081Z,25.20
2022-10-11T22:50:55.882Z,30.93
2022-10-11T22:53:23.792Z,31.10
2022-10-11T22:55:51.611Z,28.57
2022-10-11T22:58:19.404Z,26.43
2022-10-11T23:00:47.346Z,24.63
2022-10-11T23:03:15.473Z,28.27
2022-10-11T23:05:43.397Z,24.50
2022-10-11T23:08:10.998Z,25.40
2022-10-11T23:10:39.580Z,21.95
2022-10-11T23:13:07.904Z,25.50
2022-10-11T23:15:35.530Z,23.20
2022-10-11T23:18:03.162Z,20.23
2022-10-11T23:20:31.045Z,25.17
2022-10-11T23:23:00.777Z,20.77
2022-10-11T23:25:28.385Z,18.00
2022-10-11T23:27:59.928Z,23.37
2022-10-11T23:30:28.124Z,20.20
2022-10-11T23:32:56.838Z,22.40
2022-10-11T23:35:43.810Z,22.50
2022-10-11T23:38:11.551Z,26.07
2022-10-11T23:40:39.134Z,25.83
2022-10-11T23:43:06.946Z,29.03
2022-10-11T23:45:34.682Z,27.77
2022-10-11T23:48:02.354Z,21.30
2022-10-11T23:50:30.195Z,22.52
2022-10-11T23:52:58.680Z,21.27
2022-10-11T23:55:27.284Z,23.33
2022-10-11T23:57:55.049Z,18.23
